sensor_id;sensor_type;location;lat;lon;timestamp;temperature;humidity
26641;DHT22;14269;47.358;0.724;2022-11-15T00:02:11;11.0;79.0
26641;DHT22;14269;47.358;0.724;2022-11-15T00:04:43;11.0;80.0
26641;DHT22;14269;47.358;0.724;2022-11-15T00:07:16;11.0;80.0
26641;DHT22;14269;47.358;0.724;2022-11-15T00:09:56;11.0;80.0
26641;DHT22;14269;47.358;0.724;2022-11-15T00:12:28;11.0;80.0
26641;DHT22;14269;47.358;0.724;2022-11-15T00:14:59;11.0;80.0
26641;DHT22;14269;47.358;0.724;2022-11-15T00:17:31;11.0;80.0
26641;DHT22;14269;47.358;0.724;2022-11-15T00:20:03;11.0;80.0
26641;DHT22;14269;47.358;0.724;2022-11-15T00:22:34;11.0;80.0
26641;DHT22;14269;47.358;0.724;2022-11-15T00:25:06;11.0;80.0
26641;DHT22;14269;47.358;0.724;2022-11-15T00:27:37;11.0;80.0
26641;DHT22;14269;47.358;0.724;2022-11-15T00:30:10;11.0;80.0
26641;DHT22;14269;47.358;0.724;2022-11-15T00:32:51;11.0;80.0
26641;DHT22;14269;47.358;0.724;2022-11-15T00:35:23;11.0;80.0
26641;DHT22;14269;47.358;0.724;2022-11-15T00:37:54;11.0;80.0
26641;DHT22;14269;47.358;0.724;2022-11-15T00:40:26;11.0;80.0
26641;DHT22;14269;47.358;0.724;2022-11-15T00:42:58;11.0;80.0
26641;DHT22;14269;47.358;0.724;2022-11-15T00:45:29;11.0;81.0
26641;DHT22;14269;47.358;0.724;2022-11-15T00:48:01;11.0;80.0
26641;DHT22;14269;47.358;0.724;2022-11-15T00:50:32;11.0;80.0
26641;DHT22;14269;47.358;0.724;2022-11-15T00:53:04;11.0;80.0
26641;DHT22;14269;47.358;0.724;2022-11-15T00:55:36;11.0;80.0
26641;DHT22;14269;47.358;0.724;2022-11-15T00:58:07;12.0;80.0
26641;DHT22;14269;47.358;0.724;2022-11-15T01:00:39;12.0;79.0
26641;DHT22;14269;47.358;0.724;2022-11-15T01:03:11;12.0;79.0
26641;DHT22;14269;47.358;0.724;2022-11-15T01:05:42;12.0;78.0
26641;DHT22;14269;47.358;0.724;2022-11-15T01:08:15;12.0;79.0
26641;DHT22;14269;47.358;0.724;2022-11-15T01:11:00;12.0;78.0
26641;DHT22;14269;47.358;0.724;2022-11-15T01:13:38;12.0;79.0
26641;DHT22;14269;47.358;0.724;2022-11-15T01:16:19;12.0;79.0
26641;DHT22;14269;47.358;0.724;2022-11-15T01:18:51;12.0;79.0
26641;DHT22;14269;47.358;0.724;2022-11-15T01:21:23;11.0;79.0
26641;DHT22;14269;47.358;0.724;2022-11-15T01:23:55;11.0;80.0
26641;DHT22;14269;47.358;0.724;2022-11-15T01:26:36;11.0;80.0
26641;DHT22;14269;47.358;0.724;2022-11-15T01:29:08;11.0;80.0
26641;DHT22;14269;47.358;0.724;2022-11-15T01:31:39;11.0;80.0
26641;DHT22;14269;47.358;0.724;2022-11-15T01:34:11;11.0;80.0
26641;DHT22;14269;47.358;0.724;2022-11-15T01:36:43;11.0;80.0
26641;DHT22;14269;47.358;0.724;2022-11-15T01:39:15;11.0;81.0
26641;DHT22;14269;47.358;0.724;2022-11-15T01:41:46;11.0;80.0
26641;DHT22;14269;47.358;0.724;2022-11-15T01:44:50;11.0;81.0
26641;DHT22;14269;47.358;0.724;2022-11-15T01:47:32;11.0;81.0
26641;DHT22;14269;47.358;0.724;2022-11-15T01:50:15;11.0;81.0
26641;DHT22;14269;47.358;0.724;2022-11-15T01:52:53;11.0;81.0
26641;DHT22;14269;47.358;0.724;2022-11-15T01:55:26;11.0;81.0
26641;DHT22;14269;47.358;0.724;2022-11-15T01:58:07;11.0;81.0
26641;DHT22;14269;47.358;0.724;2022-11-15T02:00:38;11.0;81.0
26641;DHT22;14269;47.358;0.724;2022-11-15T02:03:10;11.0;81.0
26641;DHT22;14269;47.358;0.724;2022-11-15T02:05:42;11.0;81.0
26641;DHT22;14269;47.358;0.724;2022-11-15T02:08:23;11.0;81.0
26641;DHT22;14269;47.358;0.724;2022-11-15T02:10:55;11.0;82.0
26641;DHT22;14269;47.358;0.724;2022-11-15T02:13:27;11.0;82.0
26641;DHT22;14269;47.358;0.724;2022-11-15T02:16:05;11.0;82.0
26641;DHT22;14269;47.358;0.724;2022-11-15T02:18:44;11.0;82.0
26641;DHT22;14269;47.358;0.724;2022-11-15T02:21:28;11.0;82.0
26641;DHT22;14269;47.358;0.724;2022-11-15T02:24:35;11.0;82.0
26641;DHT22;14269;47.358;0.724;2022-11-15T02:29:53;11.0;82.0
26641;DHT22;14269;47.358;0.724;2022-11-15T02:32:43;11.0;82.0
26641;DHT22;14269;47.358;0.724;2022-11-15T02:35:29;11.0;82.0
26641;DHT22;14269;47.358;0.724;2022-11-15T02:38:07;11.0;82.0
26641;DHT22;14269;47.358;0.724;2022-11-15T02:40:51;11.0;82.0
26641;DHT22;14269;47.358;0.724;2022-11-15T02:44:01;11.0;82.0
26641;DHT22;14269;47.358;0.724;2022-11-15T02:47:45;11.0;82.0
26641;DHT22;14269;47.358;0.724;2022-11-15T02:50:24;11.0;82.0
26641;DHT22;14269;47.358;0.724;2022-11-15T02:53:03;11.0;82.0
26641;DHT22;14269;47.358;0.724;2022-11-15T02:55:35;11.0;82.0
26641;DHT22;14269;47.358;0.724;2022-11-15T02:58:28;11.0;82.0
26641;DHT22;14269;47.358;0.724;2022-11-15T03:01:13;12.0;82.0
26641;DHT22;14269;47.358;0.724;2022-11-15T03:03:59;12.0;82.0
26641;DHT22;14269;47.358;0.724;2022-11-15T03:06:47;12.0;82.0
26641;DHT22;14269;47.358;0.724;2022-11-15T03:09:30;12.0;82.0
26641;DHT22;14269;47.358;0.724;2022-11-15T03:12:09;12.0;82.0
26641;DHT22;14269;47.358;0.724;2022-11-15T03:14:53;11.0;82.0
26641;DHT22;14269;47.358;0.724;2022-11-15T03:17:30;11.0;82.0
26641;DHT22;14269;47.358;0.724;2022-11-15T03:20:11;12.0;82.0
26641;DHT22;14269;47.358;0.724;2022-11-15T03:22:54;12.0;82.0
26641;DHT22;14269;47.358;0.724;2022-11-15T03:25:35;12.0;82.0
26641;DHT22;14269;47.358;0.724;2022-11-15T03:28:19;12.0;82.0
26641;DHT22;14269;47.358;0.724;2022-11-15T03:30:58;12.0;81.0
26641;DHT22;14269;47.358;0.724;2022-11-15T03:33:39;12.0;81.0
26641;DHT22;14269;47.358;0.724;2022-11-15T03:36:22;12.0;82.0
26641;DHT22;14269;47.358;0.724;2022-11-15T03:39:06;12.0;82.0
26641;DHT22;14269;47.358;0.724;2022-11-15T03:41:48;12.0;81.0
26641;DHT22;14269;47.358;0.724;2022-11-15T03:44:34;12.0;81.0
26641;DHT22;14269;47.358;0.724;2022-11-15T03:47:11;12.0;81.0
26641;DHT22;14269;47.358;0.724;2022-11-15T03:49:51;12.0;81.0
26641;DHT22;14269;47.358;0.724;2022-11-15T03:52:32;12.0;81.0
26641;DHT22;14269;47.358;0.724;2022-11-15T03:55:17;12.0;81.0
26641;DHT22;14269;47.358;0.724;2022-11-15T03:57:58;12.0;81.0
26641;DHT22;14269;47.358;0.724;2022-11-15T04:00:36;12.0;81.0
26641;DHT22;14269;47.358;0.724;2022-11-15T04:03:08;12.0;81.0
26641;DHT22;14269;47.358;0.724;2022-11-15T04:05:40;12.0;81.0
26641;DHT22;14269;47.358;0.724;2022-11-15T04:08:11;12.0;81.0
26641;DHT22;14269;47.358;0.724;2022-11-15T04:10:43;12.0;81.0
26641;DHT22;14269;47.358;0.724;2022-11-15T04:13:15;12.0;81.0
26641;DHT22;14269;47.358;0.724;2022-11-15T04:15:46;12.0;81.0
26641;DHT22;14269;47.358;0.724;2022-11-15T04:18:18;12.0;81.0
26641;DHT22;14269;47.358;0.724;2022-11-15T04:24:16;12.0;81.0
26641;DHT22;14269;47.358;0.724;2022-11-15T04:26:53;12.0;81.0
26641;DHT22;14269;47.358;0.724;2022-11-15T04:29:41;12.0;82.0
26641;DHT22;14269;47.358;0.724;2022-11-15T04:32:17;12.0;82.0
26641;DHT22;14269;47.358;0.724;2022-11-15T04:34:48;12.0;82.0
26641;DHT22;14269;47.358;0.724;2022-11-15T04:37:20;12.0;82.0
26641;DHT22;14269;47.358;0.724;2022-11-15T04:39:52;12.0;82.0
26641;DHT22;14269;47.358;0.724;2022-11-15T04:42:23;12.0;82.0
26641;DHT22;14269;47.358;0.724;2022-11-15T04:44:55;12.0;82.0
26641;DHT22;14269;47.358;0.724;2022-11-15T04:47:28;12.0;82.0
26641;DHT22;14269;47.358;0.724;2022-11-15T04:50:09;12.0;82.0
26641;DHT22;14269;47.358;0.724;2022-11-15T04:52:52;12.0;82.0
26641;DHT22;14269;47.358;0.724;2022-11-15T04:55:32;12.0;82.0
26641;DHT22;14269;47.358;0.724;2022-11-15T04:58:04;12.0;82.0
26641;DHT22;14269;47.358;0.724;2022-11-15T05:00:35;12.0;82.0
26641;DHT22;14269;47.358;0.724;2022-11-15T05:05:39;12.0;82.0
26641;DHT22;14269;47.358;0.724;2022-11-15T05:08:10;12.0;83.0
26641;DHT22;14269;47.358;0.724;2022-11-15T05:10:42;12.0;83.0
26641;DHT22;14269;47.358;0.724;2022-11-15T05:13:14;12.0;83.0
26641;DHT22;14269;47.358;0.724;2022-11-15T05:15:46;12.0;83.0
26641;DHT22;14269;47.358;0.724;2022-11-15T05:18:27;12.0;83.0
26641;DHT22;14269;47.358;0.724;2022-11-15T05:21:03;12.0;83.0
26641;DHT22;14269;47.358;0.724;2022-11-15T05:23:41;12.0;83.0
26641;DHT22;14269;47.358;0.724;2022-11-15T05:26:13;12.0;83.0
26641;DHT22;14269;47.358;0.724;2022-11-15T05:28:55;12.0;83.0
26641;DHT22;14269;47.358;0.724;2022-11-15T05:31:39;12.0;83.0
26641;DHT22;14269;47.358;0.724;2022-11-15T05:34:18;12.0;83.0
26641;DHT22;14269;47.358;0.724;2022-11-15T05:36:49;12.0;83.0
26641;DHT22;14269;47.358;0.724;2022-11-15T05:39:21;12.0;83.0
26641;DHT22;14269;47.358;0.724;2022-11-15T05:41:55;12.0;83.0
26641;DHT22;14269;47.358;0.724;2022-11-15T05:44:36;12.0;83.0
26641;DHT22;14269;47.358;0.724;2022-11-15T05:47:20;12.0;83.0
26641;DHT22;14269;47.358;0.724;2022-11-15T05:49:57;12.0;83.0
26641;DHT22;14269;47.358;0.724;2022-11-15T05:52:31;12.0;83.0
26641;DHT22;14269;47.358;0.724;2022-11-15T05:55:11;12.0;83.0
26641;DHT22;14269;47.358;0.724;2022-11-15T05:57:53;12.0;83.0
26641;DHT22;14269;47.358;0.724;2022-11-15T06:00:24;12.0;83.0
26641;DHT22;14269;47.358;0.724;2022-11-15T06:02:56;12.0;83.0
26641;DHT22;14269;47.358;0.724;2022-11-15T06:05:28;12.0;83.0
26641;DHT22;14269;47.358;0.724;2022-11-15T06:07:59;12.0;83.0
26641;DHT22;14269;47.358;0.724;2022-11-15T06:10:31;12.0;83.0
26641;DHT22;14269;47.358;0.724;2022-11-15T06:13:04;12.0;83.0
26641;DHT22;14269;47.358;0.724;2022-11-15T06:15:45;12.0;83.0
26641;DHT22;14269;47.358;0.724;2022-11-15T06:18:16;12.0;83.0
26641;DHT22;14269;47.358;0.724;2022-11-15T06:20:48;12.0;83.0
26641;DHT22;14269;47.358;0.724;2022-11-15T06:23:19;12.0;84.0
26641;DHT22;14269;47.358;0.724;2022-11-15T06:25:51;12.0;84.0
26641;DHT22;14269;47.358;0.724;2022-11-15T06:28:22;12.0;84.0
26641;DHT22;14269;47.358;0.724;2022-11-15T06:30:54;12.0;84.0
26641;DHT22;14269;47.358;0.724;2022-11-15T06:33:26;12.0;84.0
26641;DHT22;14269;47.358;0.724;2022-11-15T06:36:00;12.0;84.0
26641;DHT22;14269;47.358;0.724;2022-11-15T06:38:39;12.0;84.0
26641;DHT22;14269;47.358;0.724;2022-11-15T06:41:12;12.0;85.0
26641;DHT22;14269;47.358;0.724;2022-11-15T06:43:53;12.0;84.0
26641;DHT22;14269;47.358;0.724;2022-11-15T06:46:24;12.0;84.0
26641;DHT22;14269;47.358;0.724;2022-11-15T06:48:56;12.0;84.0
26641;DHT22;14269;47.358;0.724;2022-11-15T06:51:28;12.0;84.0
26641;DHT22;14269;47.358;0.724;2022-11-15T06:53:59;12.0;84.0
26641;DHT22;14269;47.358;0.724;2022-11-15T06:56:31;12.0;84.0
26641;DHT22;14269;47.358;0.724;2022-11-15T06:59:03;12.0;84.0
26641;DHT22;14269;47.358;0.724;2022-11-15T07:01:34;12.0;84.0
26641;DHT22;14269;47.358;0.724;2022-11-15T07:04:06;12.0;84.0
26641;DHT22;14269;47.358;0.724;2022-11-15T07:06:37;12.0;84.0
26641;DHT22;14269;47.358;0.724;2022-11-15T07:09:09;12.0;84.0
26641;DHT22;14269;47.358;0.724;2022-11-15T07:11:41;12.0;84.0
26641;DHT22;14269;47.358;0.724;2022-11-15T07:14:12;12.0;84.0
26641;DHT22;14269;47.358;0.724;2022-11-15T07:16:44;12.0;84.0
26641;DHT22;14269;47.358;0.724;2022-11-15T07:19:16;12.0;84.0
26641;DHT22;14269;47.358;0.724;2022-11-15T07:21:47;12.0;84.0
26641;DHT22;14269;47.358;0.724;2022-11-15T07:24:19;12.0;83.0
26641;DHT22;14269;47.358;0.724;2022-11-15T07:26:51;12.0;83.0
26641;DHT22;14269;47.358;0.724;2022-11-15T07:29:22;12.0;83.0
26641;DHT22;14269;47.358;0.724;2022-11-15T07:31:54;12.0;83.0
26641;DHT22;14269;47.358;0.724;2022-11-15T07:34:26;12.0;83.0
26641;DHT22;14269;47.358;0.724;2022-11-15T07:36:57;12.0;83.0
26641;DHT22;14269;47.358;0.724;2022-11-15T07:39:29;12.0;83.0
26641;DHT22;14269;47.358;0.724;2022-11-15T07:43:06;12.0;83.0
26641;DHT22;14269;47.358;0.724;2022-11-15T07:45:44;12.0;83.0
26641;DHT22;14269;47.358;0.724;2022-11-15T07:48:25;12.0;83.0
26641;DHT22;14269;47.358;0.724;2022-11-15T07:50:56;12.0;83.0
26641;DHT22;14269;47.358;0.724;2022-11-15T07:53:28;12.0;83.0
26641;DHT22;14269;47.358;0.724;2022-11-15T07:56:00;12.0;83.0
26641;DHT22;14269;47.358;0.724;2022-11-15T07:58:31;12.0;83.0
26641;DHT22;14269;47.358;0.724;2022-11-15T08:01:04;12.0;83.0
26641;DHT22;14269;47.358;0.724;2022-11-15T08:03:35;12.0;83.0
26641;DHT22;14269;47.358;0.724;2022-11-15T08:06:06;12.0;83.0
26641;DHT22;14269;47.358;0.724;2022-11-15T08:08:38;12.0;83.0
26641;DHT22;14269;47.358;0.724;2022-11-15T08:11:09;12.0;83.0
26641;DHT22;14269;47.358;0.724;2022-11-15T08:13:41;12.0;83.0
26641;DHT22;14269;47.358;0.724;2022-11-15T08:16:13;12.0;84.0
26641;DHT22;14269;47.358;0.724;2022-11-15T08:18:45;12.0;84.0
26641;DHT22;14269;47.358;0.724;2022-11-15T08:21:19;12.0;84.0
26641;DHT22;14269;47.358;0.724;2022-11-15T08:23:58;12.0;84.0
26641;DHT22;14269;47.358;0.724;2022-11-15T08:26:30;12.0;84.0
26641;DHT22;14269;47.358;0.724;2022-11-15T08:29:01;12.0;84.0
26641;DHT22;14269;47.358;0.724;2022-11-15T08:31:33;12.0;84.0
26641;DHT22;14269;47.358;0.724;2022-11-15T08:34:05;12.0;84.0
26641;DHT22;14269;47.358;0.724;2022-11-15T08:36:36;12.0;85.0
26641;DHT22;14269;47.358;0.724;2022-11-15T08:39:10;12.0;85.0
26641;DHT22;14269;47.358;0.724;2022-11-15T08:41:49;12.0;85.0
26641;DHT22;14269;47.358;0.724;2022-11-15T08:44:21;12.0;85.0
26641;DHT22;14269;47.358;0.724;2022-11-15T08:46:53;12.0;85.0
26641;DHT22;14269;47.358;0.724;2022-11-15T08:49:24;12.0;85.0
26641;DHT22;14269;47.358;0.724;2022-11-15T08:51:56;12.0;86.0
26641;DHT22;14269;47.358;0.724;2022-11-15T08:54:28;12.0;86.0
26641;DHT22;14269;47.358;0.724;2022-11-15T08:56:59;12.0;86.0
26641;DHT22;14269;47.358;0.724;2022-11-15T08:59:31;12.0;86.0
26641;DHT22;14269;47.358;0.724;2022-11-15T09:02:03;12.0;86.0
26641;DHT22;14269;47.358;0.724;2022-11-15T09:04:34;12.0;86.0
26641;DHT22;14269;47.358;0.724;2022-11-15T09:07:06;12.0;86.0
26641;DHT22;14269;47.358;0.724;2022-11-15T09:09:38;12.0;86.0
26641;DHT22;14269;47.358;0.724;2022-11-15T09:12:09;12.0;86.0
26641;DHT22;14269;47.358;0.724;2022-11-15T09:14:41;12.0;86.0
26641;DHT22;14269;47.358;0.724;2022-11-15T09:17:12;12.0;87.0
26641;DHT22;14269;47.358;0.724;2022-11-15T09:19:44;12.0;87.0
26641;DHT22;14269;47.358;0.724;2022-11-15T09:22:16;12.0;87.0
26641;DHT22;14269;47.358;0.724;2022-11-15T09:24:47;12.0;87.0
26641;DHT22;14269;47.358;0.724;2022-11-15T09:27:19;12.0;87.0
26641;DHT22;14269;47.358;0.724;2022-11-15T09:29:51;12.0;87.0
26641;DHT22;14269;47.358;0.724;2022-11-15T09:32:23;12.0;87.0
26641;DHT22;14269;47.358;0.724;2022-11-15T09:34:54;12.0;87.0
26641;DHT22;14269;47.358;0.724;2022-11-15T09:37:26;12.0;87.0
26641;DHT22;14269;47.358;0.724;2022-11-15T09:39:57;12.0;87.0
26641;DHT22;14269;47.358;0.724;2022-11-15T09:42:44;12.0;87.0
26641;DHT22;14269;47.358;0.724;2022-11-15T09:45:26;12.0;87.0
26641;DHT22;14269;47.358;0.724;2022-11-15T09:48:17;12.0;87.0
26641;DHT22;14269;47.358;0.724;2022-11-15T09:50:58;13.0;86.0
26641;DHT22;14269;47.358;0.724;2022-11-15T09:53:42;13.0;86.0
26641;DHT22;14269;47.358;0.724;2022-11-15T09:56:20;13.0;86.0
26641;DHT22;14269;47.358;0.724;2022-11-15T09:59:13;13.0;86.0
26641;DHT22;14269;47.358;0.724;2022-11-15T10:01:59;13.0;86.0
26641;DHT22;14269;47.358;0.724;2022-11-15T10:04:44;13.0;86.0
26641;DHT22;14269;47.358;0.724;2022-11-15T10:07:20;13.0;86.0
26641;DHT22;14269;47.358;0.724;2022-11-15T10:10:04;13.0;86.0
26641;DHT22;14269;47.358;0.724;2022-11-15T10:12:40;13.0;86.0
26641;DHT22;14269;47.358;0.724;2022-11-15T10:15:22;13.0;86.0
26641;DHT22;14269;47.358;0.724;2022-11-15T10:18:08;13.0;86.0
26641;DHT22;14269;47.358;0.724;2022-11-15T10:20:49;13.0;86.0
26641;DHT22;14269;47.358;0.724;2022-11-15T10:23:27;13.0;86.0
26641;DHT22;14269;47.358;0.724;2022-11-15T10:26:10;13.0;86.0
26641;DHT22;14269;47.358;0.724;2022-11-15T10:28:49;13.0;86.0
26641;DHT22;14269;47.358;0.724;2022-11-15T10:31:23;13.0;86.0
26641;DHT22;14269;47.358;0.724;2022-11-15T10:34:11;13.0;86.0
26641;DHT22;14269;47.358;0.724;2022-11-15T10:36:45;13.0;86.0
26641;DHT22;14269;47.358;0.724;2022-11-15T10:39:27;13.0;86.0
26641;DHT22;14269;47.358;0.724;2022-11-15T10:42:17;13.0;86.0
26641;DHT22;14269;47.358;0.724;2022-11-15T10:44:50;13.0;86.0
26641;DHT22;14269;47.358;0.724;2022-11-15T10:47:24;13.0;86.0
26641;DHT22;14269;47.358;0.724;2022-11-15T10:50:07;13.0;87.0
26641;DHT22;14269;47.358;0.724;2022-11-15T10:52:45;13.0;87.0
26641;DHT22;14269;47.358;0.724;2022-11-15T10:55:28;13.0;87.0
26641;DHT22;14269;47.358;0.724;2022-11-15T10:58:21;13.0;87.0
26641;DHT22;14269;47.358;0.724;2022-11-15T11:01:13;13.0;88.0
26641;DHT22;14269;47.358;0.724;2022-11-15T11:03:59;13.0;88.0
26641;DHT22;14269;47.358;0.724;2022-11-15T11:06:46;13.0;88.0
26641;DHT22;14269;47.358;0.724;2022-11-15T11:09:30;13.0;88.0
26641;DHT22;14269;47.358;0.724;2022-11-15T11:12:10;13.0;88.0
26641;DHT22;14269;47.358;0.724;2022-11-15T11:14:49;13.0;88.0
26641;DHT22;14269;47.358;0.724;2022-11-15T11:17:31;13.0;88.0
26641;DHT22;14269;47.358;0.724;2022-11-15T11:20:18;13.0;88.0
26641;DHT22;14269;47.358;0.724;2022-11-15T11:23:03;13.0;88.0
26641;DHT22;14269;47.358;0.724;2022-11-15T11:25:42;13.0;88.0
26641;DHT22;14269;47.358;0.724;2022-11-15T11:28:31;13.0;88.0
26641;DHT22;14269;47.358;0.724;2022-11-15T11:31:20;13.0;88.0
26641;DHT22;14269;47.358;0.724;2022-11-15T11:34:11;13.0;88.0
26641;DHT22;14269;47.358;0.724;2022-11-15T11:36:50;13.0;88.0
26641;DHT22;14269;47.358;0.724;2022-11-15T11:39:31;13.0;88.0
26641;DHT22;14269;47.358;0.724;2022-11-15T11:42:26;13.0;88.0
26641;DHT22;14269;47.358;0.724;2022-11-15T11:45:17;13.0;88.0
26641;DHT22;14269;47.358;0.724;2022-11-15T11:47:57;13.0;88.0
26641;DHT22;14269;47.358;0.724;2022-11-15T11:50:36;13.0;88.0
26641;DHT22;14269;47.358;0.724;2022-11-15T11:53:17;13.0;88.0
26641;DHT22;14269;47.358;0.724;2022-11-15T11:55:58;13.0;88.0
26641;DHT22;14269;47.358;0.724;2022-11-15T11:58:42;13.0;87.0
26641;DHT22;14269;47.358;0.724;2022-11-15T12:01:23;13.0;88.0
26641;DHT22;14269;47.358;0.724;2022-11-15T12:04:05;13.0;87.0
26641;DHT22;14269;47.358;0.724;2022-11-15T12:06:48;13.0;87.0
26641;DHT22;14269;47.358;0.724;2022-11-15T12:09:29;13.0;87.0
26641;DHT22;14269;47.358;0.724;2022-11-15T12:12:11;13.0;87.0
26641;DHT22;14269;47.358;0.724;2022-11-15T12:14:51;13.0;87.0
26641;DHT22;14269;47.358;0.724;2022-11-15T12:17:32;13.0;87.0
26641;DHT22;14269;47.358;0.724;2022-11-15T12:20:16;13.0;87.0
26641;DHT22;14269;47.358;0.724;2022-11-15T12:22:56;13.0;87.0
26641;DHT22;14269;47.358;0.724;2022-11-15T12:25:41;13.0;87.0
26641;DHT22;14269;47.358;0.724;2022-11-15T12:28:21;13.0;87.0
26641;DHT22;14269;47.358;0.724;2022-11-15T12:31:03;13.0;87.0
26641;DHT22;14269;47.358;0.724;2022-11-15T12:33:44;13.0;86.0
26641;DHT22;14269;47.358;0.724;2022-11-15T12:36:35;14.0;86.0
26641;DHT22;14269;47.358;0.724;2022-11-15T12:39:15;14.0;86.0
26641;DHT22;14269;47.358;0.724;2022-11-15T12:42:40;14.0;86.0
26641;DHT22;14269;47.358;0.724;2022-11-15T12:45:28;14.0;86.0
26641;DHT22;14269;47.358;0.724;2022-11-15T12:49:10;14.0;86.0
26641;DHT22;14269;47.358;0.724;2022-11-15T12:52:07;13.0;86.0
26641;DHT22;14269;47.358;0.724;2022-11-15T12:55:08;14.0;86.0
26641;DHT22;14269;47.358;0.724;2022-11-15T12:59:47;13.0;86.0
26641;DHT22;14269;47.358;0.724;2022-11-15T13:02:21;14.0;85.0
26641;DHT22;14269;47.358;0.724;2022-11-15T13:07:56;14.0;84.0
26641;DHT22;14269;47.358;0.724;2022-11-15T13:10:34;14.0;84.0
26641;DHT22;14269;47.358;0.724;2022-11-15T13:13:08;14.0;84.0
26641;DHT22;14269;47.358;0.724;2022-11-15T13:15:56;14.0;83.0
26641;DHT22;14269;47.358;0.724;2022-11-15T13:18:35;14.0;83.0
26641;DHT22;14269;47.358;0.724;2022-11-15T13:23:45;14.0;82.0
26641;DHT22;14269;47.358;0.724;2022-11-15T13:26:25;14.0;82.0
26641;DHT22;14269;47.358;0.724;2022-11-15T13:28:56;14.0;82.0
26641;DHT22;14269;47.358;0.724;2022-11-15T13:31:34;15.0;82.0
26641;DHT22;14269;47.358;0.724;2022-11-15T13:34:21;15.0;81.0
26641;DHT22;14269;47.358;0.724;2022-11-15T13:37:02;15.0;81.0
26641;DHT22;14269;47.358;0.724;2022-11-15T13:39:37;14.0;81.0
26641;DHT22;14269;47.358;0.724;2022-11-15T13:42:17;14.0;81.0
26641;DHT22;14269;47.358;0.724;2022-11-15T13:44:59;14.0;81.0
26641;DHT22;14269;47.358;0.724;2022-11-15T13:47:39;14.0;81.0
26641;DHT22;14269;47.358;0.724;2022-11-15T13:50:11;14.0;82.0
26641;DHT22;14269;47.358;0.724;2022-11-15T13:52:53;14.0;81.0
26641;DHT22;14269;47.358;0.724;2022-11-15T13:55:34;14.0;82.0
26641;DHT22;14269;47.358;0.724;2022-11-15T13:58:06;14.0;82.0
26641;DHT22;14269;47.358;0.724;2022-11-15T14:00:39;14.0;82.0
26641;DHT22;14269;47.358;0.724;2022-11-15T14:03:22;14.0;82.0
26641;DHT22;14269;47.358;0.724;2022-11-15T14:06:05;14.0;82.0
26641;DHT22;14269;47.358;0.724;2022-11-15T14:08:59;14.0;82.0
26641;DHT22;14269;47.358;0.724;2022-11-15T14:11:34;14.0;82.0
26641;DHT22;14269;47.358;0.724;2022-11-15T14:14:13;14.0;82.0
26641;DHT22;14269;47.358;0.724;2022-11-15T14:16:50;14.0;82.0
26641;DHT22;14269;47.358;0.724;2022-11-15T14:19:38;14.0;82.0
26641;DHT22;14269;47.358;0.724;2022-11-15T14:22:15;14.0;82.0
26641;DHT22;14269;47.358;0.724;2022-11-15T14:25:26;14.0;82.0
26641;DHT22;14269;47.358;0.724;2022-11-15T14:28:39;14.0;82.0
26641;DHT22;14269;47.358;0.724;2022-11-15T14:31:17;14.0;82.0
26641;DHT22;14269;47.358;0.724;2022-11-15T14:33:59;14.0;82.0
26641;DHT22;14269;47.358;0.724;2022-11-15T14:36:30;14.0;82.0
26641;DHT22;14269;47.358;0.724;2022-11-15T14:39:05;14.0;82.0
26641;DHT22;14269;47.358;0.724;2022-11-15T14:41:44;15.0;82.0
26641;DHT22;14269;47.358;0.724;2022-11-15T14:44:18;14.0;82.0
26641;DHT22;14269;47.358;0.724;2022-11-15T14:46:57;14.0;81.0
26641;DHT22;14269;47.358;0.724;2022-11-15T14:49:29;15.0;82.0
26641;DHT22;14269;47.358;0.724;2022-11-15T14:52:01;15.0;81.0
26641;DHT22;14269;47.358;0.724;2022-11-15T14:54:32;15.0;81.0
26641;DHT22;14269;47.358;0.724;2022-11-15T14:57:04;15.0;81.0
26641;DHT22;14269;47.358;0.724;2022-11-15T14:59:35;15.0;81.0
26641;DHT22;14269;47.358;0.724;2022-11-15T15:02:11;15.0;81.0
26641;DHT22;14269;47.358;0.724;2022-11-15T15:04:49;14.0;81.0
26641;DHT22;14269;47.358;0.724;2022-11-15T15:07:21;14.0;81.0
26641;DHT22;14269;47.358;0.724;2022-11-15T15:09:52;15.0;81.0
26641;DHT22;14269;47.358;0.724;2022-11-15T15:12:24;15.0;81.0
26641;DHT22;14269;47.358;0.724;2022-11-15T15:14:55;14.0;81.0
26641;DHT22;14269;47.358;0.724;2022-11-15T15:17:27;14.0;81.0
26641;DHT22;14269;47.358;0.724;2022-11-15T15:19:59;14.0;81.0
26641;DHT22;14269;47.358;0.724;2022-11-15T15:22:31;15.0;81.0
26641;DHT22;14269;47.358;0.724;2022-11-15T15:25:10;14.0;81.0
26641;DHT22;14269;47.358;0.724;2022-11-15T15:27:55;15.0;81.0
26641;DHT22;14269;47.358;0.724;2022-11-15T15:30:36;15.0;81.0
26641;DHT22;14269;47.358;0.724;2022-11-15T15:33:07;15.0;81.0
26641;DHT22;14269;47.358;0.724;2022-11-15T15:35:39;15.0;81.0
26641;DHT22;14269;47.358;0.724;2022-11-15T15:38:11;15.0;81.0
26641;DHT22;14269;47.358;0.724;2022-11-15T15:40:42;15.0;81.0
26641;DHT22;14269;47.358;0.724;2022-11-15T15:43:14;15.0;81.0
26641;DHT22;14269;47.358;0.724;2022-11-15T15:45:46;15.0;81.0
26641;DHT22;14269;47.358;0.724;2022-11-15T15:48:17;14.0;82.0
26641;DHT22;14269;47.358;0.724;2022-11-15T15:50:50;14.0;82.0
26641;DHT22;14269;47.358;0.724;2022-11-15T15:53:31;14.0;82.0
26641;DHT22;14269;47.358;0.724;2022-11-15T15:56:03;14.0;82.0
26641;DHT22;14269;47.358;0.724;2022-11-15T15:58:34;14.0;82.0
26641;DHT22;14269;47.358;0.724;2022-11-15T16:01:06;14.0;82.0
26641;DHT22;14269;47.358;0.724;2022-11-15T16:03:37;14.0;82.0
26641;DHT22;14269;47.358;0.724;2022-11-15T16:06:38;14.0;83.0
26641;DHT22;14269;47.358;0.724;2022-11-15T16:09:14;14.0;83.0
26641;DHT22;14269;47.358;0.724;2022-11-15T16:11:53;14.0;82.0
26641;DHT22;14269;47.358;0.724;2022-11-15T16:14:24;14.0;82.0
26641;DHT22;14269;47.358;0.724;2022-11-15T16:16:56;15.0;81.0
26641;DHT22;14269;47.358;0.724;2022-11-15T16:19:28;15.0;81.0
26641;DHT22;14269;47.358;0.724;2022-11-15T16:21:59;15.0;81.0
26641;DHT22;14269;47.358;0.724;2022-11-15T16:24:31;14.0;81.0
26641;DHT22;14269;47.358;0.724;2022-11-15T16:27:03;15.0;82.0
26641;DHT22;14269;47.358;0.724;2022-11-15T16:29:34;15.0;82.0
26641;DHT22;14269;47.358;0.724;2022-11-15T16:32:06;14.0;82.0
26641;DHT22;14269;47.358;0.724;2022-11-15T16:34:38;14.0;82.0
26641;DHT22;14269;47.358;0.724;2022-11-15T16:37:18;14.0;82.0
26641;DHT22;14269;47.358;0.724;2022-11-15T16:40:01;14.0;82.0
26641;DHT22;14269;47.358;0.724;2022-11-15T16:42:32;14.0;82.0
26641;DHT22;14269;47.358;0.724;2022-11-15T16:45:05;14.0;82.0
26641;DHT22;14269;47.358;0.724;2022-11-15T16:47:46;14.0;82.0
26641;DHT22;14269;47.358;0.724;2022-11-15T16:50:24;14.0;82.0
26641;DHT22;14269;47.358;0.724;2022-11-15T16:53:00;14.0;82.0
26641;DHT22;14269;47.358;0.724;2022-11-15T16:55:31;14.0;83.0
26641;DHT22;14269;47.358;0.724;2022-11-15T16:58:03;14.0;83.0
26641;DHT22;14269;47.358;0.724;2022-11-15T17:00:34;14.0;83.0
26641;DHT22;14269;47.358;0.724;2022-11-15T17:03:06;14.0;83.0
26641;DHT22;14269;47.358;0.724;2022-11-15T17:05:38;14.0;83.0
26641;DHT22;14269;47.358;0.724;2022-11-15T17:08:09;14.0;83.0
26641;DHT22;14269;47.358;0.724;2022-11-15T17:10:42;14.0;83.0
26641;DHT22;14269;47.358;0.724;2022-11-15T17:13:23;14.0;83.0
26641;DHT22;14269;47.358;0.724;2022-11-15T17:16:03;14.0;83.0
26641;DHT22;14269;47.358;0.724;2022-11-15T17:18:36;14.0;82.0
26641;DHT22;14269;47.358;0.724;2022-11-15T17:21:15;14.0;82.0
26641;DHT22;14269;47.358;0.724;2022-11-15T17:23:49;14.0;81.0
26641;DHT22;14269;47.358;0.724;2022-11-15T17:26:21;14.0;82.0